sensor_id;sensor_type;location;lat;lon;timestamp;pressure;altitude;pressure_sealevel;temperature;humidity
41515;BME280;27247;48.020;16.720;2023-07-24T00:01:27;99406.25;;;21.87;96.20
41515;BME280;27247;48.020;16.720;2023-07-24T00:05:38;99401.19;;;22.01;94.20
41515;BME280;27247;48.020;16.720;2023-07-24T00:09:48;99397.03;;;21.88;95.59
41515;BME280;27247;48.020;16.720;2023-07-24T00:13:58;99393.41;;;21.83;98.54
41515;BME280;27247;48.020;16.720;2023-07-24T00:18:08;99391.72;;;21.77;100.00
41515;BME280;27247;48.020;16.720;2023-07-24T00:22:19;99382.06;;;21.91;100.00
41515;BME280;27247;48.020;16.720;2023-07-24T00:26:29;99397.63;;;21.95;100.00
41515;BME280;27247;48.020;16.720;2023-07-24T00:30:39;99389.53;;;21.74;100.00
41515;BME280;27247;48.020;16.720;2023-07-24T00:34:50;99392.59;;;21.82;100.00
41515;BME280;27247;48.020;16.720;2023-07-24T00:39:00;99391.94;;;21.70;95.87
41515;BME280;27247;48.020;16.720;2023-07-24T00:43:11;99381.75;;;21.55;96.57
41515;BME280;27247;48.020;16.720;2023-07-24T00:47:21;99380.38;;;21.26;100.00
41515;BME280;27247;48.020;16.720;2023-07-24T00:51:33;99374.38;;;21.24;100.00
41515;BME280;27247;48.020;16.720;2023-07-24T00:55:44;99376.69;;;21.37;100.00
41515;BME280;27247;48.020;16.720;2023-07-24T00:59:55;99373.00;;;20.99;100.00
41515;BME280;27247;48.020;16.720;2023-07-24T01:04:05;99378.03;;;21.13;100.00
41515;BME280;27247;48.020;16.720;2023-07-24T01:08:17;99377.47;;;21.11;100.00
41515;BME280;27247;48.020;16.720;2023-07-24T01:12:45;99376.34;;;21.07;100.00
41515;BME280;27247;48.020;16.720;2023-07-24T01:16:59;99374.41;;;21.02;100.00
41515;BME280;27247;48.020;16.720;2023-07-24T01:21:11;99367.78;;;20.93;100.00
41515;BME280;27247;48.020;16.720;2023-07-24T01:25:31;99370.44;;;20.88;100.00
41515;BME280;27247;48.020;16.720;2023-07-24T01:29:41;99379.44;;;20.71;100.00
41515;BME280;27247;48.020;16.720;2023-07-24T01:33:52;99383.50;;;20.69;100.00
41515;BME280;27247;48.020;16.720;2023-07-24T01:38:02;99383.19;;;20.87;100.00
41515;BME280;27247;48.020;16.720;2023-07-24T01:42:14;99376.72;;;20.71;100.00
41515;BME280;27247;48.020;16.720;2023-07-24T01:46:24;99374.72;;;20.62;100.00
41515;BME280;27247;48.020;16.720;2023-07-24T01:50:34;99382.66;;;20.68;100.00
41515;BME280;27247;48.020;16.720;2023-07-24T01:54:45;99367.81;;;20.54;100.00
41515;BME280;27247;48.020;16.720;2023-07-24T01:58:55;99375.72;;;20.56;100.00
41515;BME280;27247;48.020;16.720;2023-07-24T02:03:05;99362.09;;;20.51;100.00
41515;BME280;27247;48.020;16.720;2023-07-24T02:07:16;99359.63;;;20.32;100.00
41515;BME280;27247;48.020;16.720;2023-07-24T02:11:26;99362.84;;;20.29;100.00
41515;BME280;27247;48.020;16.720;2023-07-24T02:15:36;99354.81;;;20.18;100.00
41515;BME280;27247;48.020;16.720;2023-07-24T02:19:47;99357.78;;;20.16;100.00
41515;BME280;27247;48.020;16.720;2023-07-24T02:23:57;99355.56;;;20.13;100.00
41515;BME280;27247;48.020;16.720;2023-07-24T02:28:08;99360.59;;;20.04;100.00
41515;BME280;27247;48.020;16.720;2023-07-24T02:32:18;99359.56;;;19.89;100.00
41515;BME280;27247;48.020;16.720;2023-07-24T02:36:31;99354.44;;;19.92;100.00
41515;BME280;27247;48.020;16.720;2023-07-24T02:40:41;99355.50;;;19.74;100.00
41515;BME280;27247;48.020;16.720;2023-07-24T02:44:52;99353.97;;;19.79;100.00
41515;BME280;27247;48.020;16.720;2023-07-24T02:49:03;99344.34;;;19.71;100.00
41515;BME280;27247;48.020;16.720;2023-07-24T02:53:13;99344.09;;;19.89;100.00
41515;BME280;27247;48.020;16.720;2023-07-24T02:57:23;99346.41;;;19.81;100.00
41515;BME280;27247;48.020;16.720;2023-07-24T03:01:34;99333.41;;;19.66;100.00
41515;BME280;27247;48.020;16.720;2023-07-24T03:05:44;99334.63;;;19.58;100.00
41515;BME280;27247;48.020;16.720;2023-07-24T03:09:55;99335.97;;;19.56;100.00
41515;BME280;27247;48.020;16.720;2023-07-24T03:14:05;99333.94;;;19.51;100.00
41515;BME280;27247;48.020;16.720;2023-07-24T03:18:15;99327.50;;;19.52;100.00
41515;BME280;27247;48.020;16.720;2023-07-24T03:22:26;99324.00;;;19.40;100.00
41515;BME280;27247;48.020;16.720;2023-07-24T03:26:36;99318.59;;;19.40;100.00
41515;BME280;27247;48.020;16.720;2023-07-24T03:30:47;99310.38;;;19.35;100.00
41515;BME280;27247;48.020;16.720;2023-07-24T03:34:57;99326.63;;;19.18;100.00
41515;BME280;27247;48.020;16.720;2023-07-24T03:39:09;99320.22;;;19.24;100.00
41515;BME280;27247;48.020;16.720;2023-07-24T03:43:19;99317.25;;;19.26;100.00
41515;BME280;27247;48.020;16.720;2023-07-24T03:47:30;99308.09;;;19.43;100.00
41515;BME280;27247;48.020;16.720;2023-07-24T03:51:40;99315.38;;;19.26;100.00
41515;BME280;27247;48.020;16.720;2023-07-24T03:55:51;99319.50;;;19.29;100.00
41515;BME280;27247;48.020;16.720;2023-07-24T04:00:02;99319.88;;;19.21;100.00
41515;BME280;27247;48.020;16.720;2023-07-24T04:04:12;99320.56;;;19.28;100.00
41515;BME280;27247;48.020;16.720;2023-07-24T04:08:22;99324.53;;;19.54;100.00
41515;BME280;27247;48.020;16.720;2023-07-24T04:12:33;99319.59;;;19.67;100.00
41515;BME280;27247;48.020;16.720;2023-07-24T04:16:43;99334.00;;;19.85;100.00
41515;BME280;27247;48.020;16.720;2023-07-24T04:20:55;99331.75;;;19.98;100.00
41515;BME280;27247;48.020;16.720;2023-07-24T04:25:06;99335.13;;;20.05;100.00
41515;BME280;27247;48.020;16.720;2023-07-24T04:29:17;99334.19;;;20.17;100.00
41515;BME280;27247;48.020;16.720;2023-07-24T04:33:27;99329.28;;;20.35;100.00
41515;BME280;27247;48.020;16.720;2023-07-24T04:37:38;99337.41;;;20.52;100.00
41515;BME280;27247;48.020;16.720;2023-07-24T04:41:48;99336.69;;;20.62;100.00
41515;BME280;27247;48.020;16.720;2023-07-24T04:45:59;99336.50;;;20.68;100.00
41515;BME280;27247;48.020;16.720;2023-07-24T04:50:09;99333.09;;;20.78;100.00
41515;BME280;27247;48.020;16.720;2023-07-24T04:54:20;99326.22;;;20.70;100.00
41515;BME280;27247;48.020;16.720;2023-07-24T04:58:30;99325.97;;;20.72;100.00
41515;BME280;27247;48.020;16.720;2023-07-24T05:02:40;99323.63;;;20.81;100.00
41515;BME280;27247;48.020;16.720;2023-07-24T05:06:51;99320.31;;;20.79;100.00
41515;BME280;27247;48.020;16.720;2023-07-24T05:11:01;99323.28;;;20.77;100.00
41515;BME280;27247;48.020;16.720;2023-07-24T05:15:11;99311.94;;;20.80;100.00
41515;BME280;27247;48.020;16.720;2023-07-24T05:19:22;99313.19;;;20.72;100.00
41515;BME280;27247;48.020;16.720;2023-07-24T05:23:32;99313.41;;;20.66;100.00
41515;BME280;27247;48.020;16.720;2023-07-24T05:27:42;99318.63;;;20.72;100.00
41515;BME280;27247;48.020;16.720;2023-07-24T05:31:53;99317.25;;;20.92;100.00
41515;BME280;27247;48.020;16.720;2023-07-24T05:36:04;99310.69;;;20.88;100.00
41515;BME280;27247;48.020;16.720;2023-07-24T05:40:14;99323.44;;;20.87;100.00
41515;BME280;27247;48.020;16.720;2023-07-24T05:44:24;99329.69;;;21.15;100.00
41515;BME280;27247;48.020;16.720;2023-07-24T05:48:35;99324.47;;;21.35;100.00
41515;BME280;27247;48.020;16.720;2023-07-24T05:52:45;99321.38;;;21.53;100.00
41515;BME280;27247;48.020;16.720;2023-07-24T05:56:56;99317.16;;;21.73;100.00
41515;BME280;27247;48.020;16.720;2023-07-24T06:01:06;99311.91;;;21.98;100.00
41515;BME280;27247;48.020;16.720;2023-07-24T06:05:20;99300.59;;;22.11;100.00
41515;BME280;27247;48.020;16.720;2023-07-24T06:09:30;99296.88;;;22.27;100.00
41515;BME280;27247;48.020;16.720;2023-07-24T06:13:41;99293.69;;;22.46;100.00
41515;BME280;27247;48.020;16.720;2023-07-24T06:17:51;99282.28;;;22.54;100.00
41515;BME280;27247;48.020;16.720;2023-07-24T06:22:02;99286.13;;;22.73;100.00
41515;BME280;27247;48.020;16.720;2023-07-24T06:26:12;99270.16;;;22.92;100.00
41515;BME280;27247;48.020;16.720;2023-07-24T06:30:22;99261.47;;;23.20;100.00
41515;BME280;27247;48.020;16.720;2023-07-24T06:34:33;99268.81;;;23.40;100.00
41515;BME280;27247;48.020;16.720;2023-07-24T06:38:44;99262.84;;;23.59;100.00
41515;BME280;27247;48.020;16.720;2023-07-24T06:42:54;99274.00;;;23.67;100.00
41515;BME280;27247;48.020;16.720;2023-07-24T06:47:05;99253.53;;;23.75;98.47
41515;BME280;27247;48.020;16.720;2023-07-24T06:51:15;99272.63;;;23.70;96.53
41515;BME280;27247;48.020;16.720;2023-07-24T06:55:25;99262.50;;;24.01;95.44
41515;BME280;27247;48.020;16.720;2023-07-24T06:59:35;99263.53;;;24.15;93.32
41515;BME280;27247;48.020;16.720;2023-07-24T07:03:46;99259.69;;;24.31;93.65
41515;BME280;27247;48.020;16.720;2023-07-24T07:07:56;99256.06;;;24.46;92.59
41515;BME280;27247;48.020;16.720;2023-07-24T07:12:07;99232.97;;;24.72;92.12
41515;BME280;27247;48.020;16.720;2023-07-24T07:16:17;99235.09;;;24.80;90.27
41515;BME280;27247;48.020;16.720;2023-07-24T07:20:29;99236.47;;;25.22;89.18
41515;BME280;27247;48.020;16.720;2023-07-24T07:24:39;99232.19;;;25.45;86.02
41515;BME280;27247;48.020;16.720;2023-07-24T07:28:49;99239.41;;;25.89;83.37
41515;BME280;27247;48.020;16.720;2023-07-24T07:33:00;99228.31;;;26.04;82.43
41515;BME280;27247;48.020;16.720;2023-07-24T07:37:11;99231.91;;;26.23;79.85
41515;BME280;27247;48.020;16.720;2023-07-24T07:41:21;99215.97;;;26.49;78.05
41515;BME280;27247;48.020;16.720;2023-07-24T07:45:31;99226.13;;;26.67;77.34
41515;BME280;27247;48.020;16.720;2023-07-24T07:49:42;99215.19;;;26.25;79.69
41515;BME280;27247;48.020;16.720;2023-07-24T07:53:52;99209.25;;;26.42;80.17
41515;BME280;27247;48.020;16.720;2023-07-24T07:58:02;99203.50;;;26.94;78.23
41515;BME280;27247;48.020;16.720;2023-07-24T08:02:12;99202.06;;;27.34;77.04
41515;BME280;27247;48.020;16.720;2023-07-24T08:06:23;99192.78;;;27.63;76.70
41515;BME280;27247;48.020;16.720;2023-07-24T08:10:39;99188.84;;;28.10;72.87
41515;BME280;27247;48.020;16.720;2023-07-24T08:14:50;99182.84;;;28.36;72.77
41515;BME280;27247;48.020;16.720;2023-07-24T08:19:00;99174.63;;;28.58;71.00
41515;BME280;27247;48.020;16.720;2023-07-24T08:23:11;99168.94;;;28.54;71.37
41515;BME280;27247;48.020;16.720;2023-07-24T08:27:21;99164.56;;;28.89;71.11
41515;BME280;27247;48.020;16.720;2023-07-24T08:31:31;99167.38;;;28.98;70.61
41515;BME280;27247;48.020;16.720;2023-07-24T08:35:42;99148.47;;;29.28;68.58
41515;BME280;27247;48.020;16.720;2023-07-24T08:39:52;99147.34;;;29.60;67.71
41515;BME280;27247;48.020;16.720;2023-07-24T08:44:04;99138.56;;;29.49;65.53
41515;BME280;27247;48.020;16.720;2023-07-24T08:48:17;99141.28;;;29.18;64.94
41515;BME280;27247;48.020;16.720;2023-07-24T08:52:30;99129.34;;;29.22;65.82
41515;BME280;27247;48.020;16.720;2023-07-24T08:56:41;99126.00;;;29.74;62.82
41515;BME280;27247;48.020;16.720;2023-07-24T09:00:51;99115.16;;;29.77;61.38
41515;BME280;27247;48.020;16.720;2023-07-24T09:05:02;99101.53;;;30.29;60.78
41515;BME280;27247;48.020;16.720;2023-07-24T09:09:14;99094.44;;;29.88;60.68
41515;BME280;27247;48.020;16.720;2023-07-24T09:13:25;99079.88;;;29.97;61.63
41515;BME280;27247;48.020;16.720;2023-07-24T09:17:35;99095.63;;;30.05;61.20
41515;BME280;27247;48.020;16.720;2023-07-24T09:21:46;99074.28;;;30.28;61.41
41515;BME280;27247;48.020;16.720;2023-07-24T09:25:56;99061.94;;;30.68;62.09
41515;BME280;27247;48.020;16.720;2023-07-24T09:30:16;99054.44;;;30.86;60.41
41515;BME280;27247;48.020;16.720;2023-07-24T09:34:27;99049.38;;;30.88;60.20
41515;BME280;27247;48.020;16.720;2023-07-24T09:38:38;99033.25;;;31.07;60.68
41515;BME280;27247;48.020;16.720;2023-07-24T09:42:49;99036.19;;;31.02;59.70
41515;BME280;27247;48.020;16.720;2023-07-24T09:46:59;99030.31;;;31.12;59.35
41515;BME280;27247;48.020;16.720;2023-07-24T09:51:11;98999.28;;;31.24;58.62
41515;BME280;27247;48.020;16.720;2023-07-24T09:55:35;98997.53;;;31.49;57.24
41515;BME280;27247;48.020;16.720;2023-07-24T09:59:49;98988.19;;;31.33;57.50
41515;BME280;27247;48.020;16.720;2023-07-24T10:04:00;98981.47;;;31.42;57.07
41515;BME280;27247;48.020;16.720;2023-07-24T10:08:14;98965.38;;;31.44;56.37
41515;BME280;27247;48.020;16.720;2023-07-24T10:12:25;98952.66;;;31.52;56.16
41515;BME280;27247;48.020;16.720;2023-07-24T10:16:38;98946.50;;;31.76;56.41
41515;BME280;27247;48.020;16.720;2023-07-24T10:20:48;98939.63;;;31.82;56.21
41515;BME280;27247;48.020;16.720;2023-07-24T10:24:58;98932.91;;;32.04;55.48
41515;BME280;27247;48.020;16.720;2023-07-24T10:29:09;98922.78;;;32.08;55.10
41515;BME280;27247;48.020;16.720;2023-07-24T10:33:20;98914.66;;;32.45;54.54
41515;BME280;27247;48.020;16.720;2023-07-24T10:37:32;98908.31;;;32.23;54.15
41515;BME280;27247;48.020;16.720;2023-07-24T10:41:43;98926.66;;;31.95;54.78
41515;BME280;27247;48.020;16.720;2023-07-24T10:45:55;98907.00;;;32.08;53.75
41515;BME280;27247;48.020;16.720;2023-07-24T10:50:06;98900.34;;;32.43;54.07
41515;BME280;27247;48.020;16.720;2023-07-24T10:54:21;98884.31;;;32.36;53.45
41515;BME280;27247;48.020;16.720;2023-07-24T10:58:31;98885.59;;;32.38;54.72
41515;BME280;27247;48.020;16.720;2023-07-24T11:02:42;98884.91;;;32.54;54.17
41515;BME280;27247;48.020;16.720;2023-07-24T11:06:53;98882.09;;;31.96;54.29
41515;BME280;27247;48.020;16.720;2023-07-24T11:11:03;98859.75;;;32.01;53.97
41515;BME280;27247;48.020;16.720;2023-07-24T11:15:14;98855.34;;;31.88;53.93
41515;BME280;27247;48.020;16.720;2023-07-24T11:19:24;98836.22;;;31.83;53.51
41515;BME280;27247;48.020;16.720;2023-07-24T11:23:35;98828.34;;;31.52;54.70
41515;BME280;27247;48.020;16.720;2023-07-24T11:27:45;98859.25;;;31.66;54.16
41515;BME280;27247;48.020;16.720;2023-07-24T11:31:57;98807.00;;;31.94;54.08
41515;BME280;27247;48.020;16.720;2023-07-24T11:36:09;98812.88;;;32.05;54.19
41515;BME280;27247;48.020;16.720;2023-07-24T11:40:19;98802.50;;;32.47;54.75
41515;BME280;27247;48.020;16.720;2023-07-24T11:44:30;98801.69;;;32.71;56.87
41515;BME280;27247;48.020;16.720;2023-07-24T11:48:41;98801.81;;;32.62;55.99
41515;BME280;27247;48.020;16.720;2023-07-24T11:52:51;98797.78;;;32.60;57.83
41515;BME280;27247;48.020;16.720;2023-07-24T11:57:03;98795.69;;;32.45;59.16
41515;BME280;27247;48.020;16.720;2023-07-24T12:01:14;98789.94;;;32.25;59.48
41515;BME280;27247;48.020;16.720;2023-07-24T12:05:24;98791.78;;;32.46;58.91
41515;BME280;27247;48.020;16.720;2023-07-24T12:09:35;98765.41;;;31.91;60.46
41515;BME280;27247;48.020;16.720;2023-07-24T12:13:45;98772.97;;;31.69;61.92
41515;BME280;27247;48.020;16.720;2023-07-24T12:17:55;98753.94;;;31.35;61.80
41515;BME280;27247;48.020;16.720;2023-07-24T12:22:06;98748.16;;;31.28;61.90
41515;BME280;27247;48.020;16.720;2023-07-24T12:26:17;98739.13;;;31.39;61.88
41515;BME280;27247;48.020;16.720;2023-07-24T12:30:28;98734.28;;;31.16;61.89
41515;BME280;27247;48.020;16.720;2023-07-24T12:34:38;98722.72;;;31.22;62.35
41515;BME280;27247;48.020;16.720;2023-07-24T12:38:48;98714.63;;;31.17;61.56
41515;BME280;27247;48.020;16.720;2023-07-24T12:42:59;98699.38;;;31.11;60.76
41515;BME280;27247;48.020;16.720;2023-07-24T12:47:10;98741.84;;;31.27;60.69
41515;BME280;27247;48.020;16.720;2023-07-24T12:51:21;98741.41;;;31.17;61.44
41515;BME280;27247;48.020;16.720;2023-07-24T12:55:31;98743.66;;;31.23;61.23
41515;BME280;27247;48.020;16.720;2023-07-24T12:59:42;98733.59;;;31.19;61.09
41515;BME280;27247;48.020;16.720;2023-07-24T13:03:52;98714.63;;;31.17;61.20
41515;BME280;27247;48.020;16.720;2023-07-24T13:08:03;98710.19;;;31.25;62.65
41515;BME280;27247;48.020;16.720;2023-07-24T13:12:13;98710.09;;;31.12;61.80
41515;BME280;27247;48.020;16.720;2023-07-24T13:16:23;98703.63;;;31.08;60.95
41515;BME280;27247;48.020;16.720;2023-07-24T13:20:34;98689.09;;;30.99;61.61
41515;BME280;27247;48.020;16.720;2023-07-24T13:24:44;98673.00;;;31.01;62.10
41515;BME280;27247;48.020;16.720;2023-07-24T13:28:54;98669.13;;;31.23;61.85
41515;BME280;27247;48.020;16.720;2023-07-24T13:33:05;98666.72;;;31.34;62.05
41515;BME280;27247;48.020;16.720;2023-07-24T13:37:15;98659.19;;;31.55;61.44
41515;BME280;27247;48.020;16.720;2023-07-24T13:41:26;98654.63;;;31.84;61.03
41515;BME280;27247;48.020;16.720;2023-07-24T13:45:36;98654.41;;;31.77;58.76
41515;BME280;27247;48.020;16.720;2023-07-24T13:49:46;98642.03;;;31.50;58.76
41515;BME280;27247;48.020;16.720;2023-07-24T13:53:57;98631.19;;;31.32;59.13
41515;BME280;27247;48.020;16.720;2023-07-24T13:58:07;98622.84;;;31.20;59.33
41515;BME280;27247;48.020;16.720;2023-07-24T14:02:18;98613.56;;;31.25;59.09
41515;BME280;27247;48.020;16.720;2023-07-24T14:06:28;98607.38;;;31.40;58.83
41515;BME280;27247;48.020;16.720;2023-07-24T14:10:39;98590.91;;;31.43;58.23
41515;BME280;27247;48.020;16.720;2023-07-24T14:14:49;98573.44;;;31.39;58.48
41515;BME280;27247;48.020;16.720;2023-07-24T14:18:59;98579.06;;;31.31;58.47
41515;BME280;27247;48.020;16.720;2023-07-24T14:23:10;98584.53;;;31.19;57.58
41515;BME280;27247;48.020;16.720;2023-07-24T14:27:20;98570.00;;;31.09;57.93
41515;BME280;27247;48.020;16.720;2023-07-24T14:31:31;98550.44;;;31.02;57.51
41515;BME280;27247;48.020;16.720;2023-07-24T14:35:41;98545.00;;;31.39;56.42
41515;BME280;27247;48.020;16.720;2023-07-24T14:39:52;98525.22;;;31.73;55.63
41515;BME280;27247;48.020;16.720;2023-07-24T14:44:02;98518.88;;;31.85;56.29
41515;BME280;27247;48.020;16.720;2023-07-24T14:48:13;98526.81;;;31.62;56.24
41515;BME280;27247;48.020;16.720;2023-07-24T14:52:26;98515.53;;;31.43;57.19
41515;BME280;27247;48.020;16.720;2023-07-24T14:56:37;98510.41;;;31.08;57.96
41515;BME280;27247;48.020;16.720;2023-07-24T15:00:48;98514.19;;;30.92;57.80
41515;BME280;27247;48.020;16.720;2023-07-24T15:04:59;98507.47;;;30.68;58.42
41515;BME280;27247;48.020;16.720;2023-07-24T15:09:10;98508.88;;;30.54;59.13
41515;BME280;27247;48.020;16.720;2023-07-24T15:13:21;98517.25;;;30.45;60.06
41515;BME280;27247;48.020;16.720;2023-07-24T15:17:32;98516.81;;;30.55;59.71
41515;BME280;27247;48.020;16.720;2023-07-24T15:21:43;98504.59;;;30.65;60.58
41515;BME280;27247;48.020;16.720;2023-07-24T15:25:54;98498.53;;;30.50;60.93
41515;BME280;27247;48.020;16.720;2023-07-24T15:30:05;98497.22;;;30.36;60.99
41515;BME280;27247;48.020;16.720;2023-07-24T15:34:16;98494.81;;;30.34;61.54
41515;BME280;27247;48.020;16.720;2023-07-24T15:38:26;98485.22;;;30.53;61.15
41515;BME280;27247;48.020;16.720;2023-07-24T15:42:37;98475.97;;;30.69;61.11
41515;BME280;27247;48.020;16.720;2023-07-24T15:46:47;98500.13;;;30.72;61.78
41515;BME280;27247;48.020;16.720;2023-07-24T15:50:58;98502.28;;;30.67;61.94
41515;BME280;27247;48.020;16.720;2023-07-24T15:55:08;98488.06;;;30.44;61.84
41515;BME280;27247;48.020;16.720;2023-07-24T15:59:20;98490.22;;;30.59;62.31
41515;BME280;27247;48.020;16.720;2023-07-24T16:03:31;98504.31;;;30.58;62.72
41515;BME280;27247;48.020;16.720;2023-07-24T16:07:42;98491.25;;;30.34;63.53
41515;BME280;27247;48.020;16.720;2023-07-24T16:11:52;98511.09;;;30.27;62.36
41515;BME280;27247;48.020;16.720;2023-07-24T16:16:03;98503.38;;;30.54;62.63
41515;BME280;27247;48.020;16.720;2023-07-24T16:20:13;98501.25;;;30.59;61.45
41515;BME280;27247;48.020;16.720;2023-07-24T16:24:24;98500.09;;;30.60;62.46
41515;BME280;27247;48.020;16.720;2023-07-24T16:28:34;98512.88;;;30.77;58.46
41515;BME280;27247;48.020;16.720;2023-07-24T16:32:45;98500.72;;;30.90;54.74
41515;BME280;27247;48.020;16.720;2023-07-24T16:36:55;98497.50;;;30.88;53.10
41515;BME280;27247;48.020;16.720;2023-07-24T16:41:05;98501.78;;;30.98;53.16
41515;BME280;27247;48.020;16.720;2023-07-24T16:45:16;98516.13;;;30.91;52.24
41515;BME280;27247;48.020;16.720;2023-07-24T16:49:27;98513.53;;;30.62;52.34
41515;BME280;27247;48.020;16.720;2023-07-24T16:53:37;98514.03;;;30.43;53.83
41515;BME280;27247;48.020;16.720;2023-07-24T16:57:48;98522.13;;;30.27;53.94
41515;BME280;27247;48.020;16.720;2023-07-24T17:01:59;98515.88;;;29.88;54.76
41515;BME280;27247;48.020;16.720;2023-07-24T17:06:10;98518.34;;;29.81;54.04
41515;BME280;27247;48.020;16.720;2023-07-24T17:10:21;98510.94;;;29.52;53.88
41515;BME280;27247;48.020;16.720;2023-07-24T17:14:31;98521.31;;;29.47;54.05
41515;BME280;27247;48.020;16.720;2023-07-24T17:18:42;98525.13;;;29.63;53.34
41515;BME280;27247;48.020;16.720;2023-07-24T17:22:52;98520.00;;;29.53;53.24
41515;BME280;27247;48.020;16.720;2023-07-24T17:27:05;98507.97;;;29.58;53.65
41515;BME280;27247;48.020;16.720;2023-07-24T17:31:16;98513.00;;;29.55;53.94
41515;BME280;27247;48.020;16.720;2023-07-24T17:35:27;98539.22;;;29.62;54.57
41515;BME280;27247;48.020;16.720;2023-07-24T17:39:37;98556.25;;;29.55;55.28
41515;BME280;27247;48.020;16.720;2023-07-24T17:43:48;98558.53;;;29.53;54.80
41515;BME280;27247;48.020;16.720;2023-07-24T17:47:59;98566.19;;;29.39;55.25
41515;BME280;27247;48.020;16.720;2023-07-24T17:52:10;98561.06;;;29.29;55.29
41515;BME280;27247;48.020;16.720;2023-07-24T17:56:21;98568.53;;;29.19;55.94
41515;BME280;27247;48.020;16.720;2023-07-24T18:00:31;98587.97;;;29.06;56.49
41515;BME280;27247;48.020;16.720;2023-07-24T18:04:43;98606.63;;;28.91;56.43
41515;BME280;27247;48.020;16.720;2023-07-24T18:08:55;98621.34;;;28.96;53.92
41515;BME280;27247;48.020;16.720;2023-07-24T18:13:06;98628.09;;;29.07;53.27
41515;BME280;27247;48.020;16.720;2023-07-24T18:17:18;98650.28;;;29.19;53.04
41515;BME280;27247;48.020;16.720;2023-07-24T18:21:29;98641.53;;;29.08;50.95
41515;BME280;27247;48.020;16.720;2023-07-24T18:25:40;98621.19;;;28.92;47.82
41515;BME280;27247;48.020;16.720;2023-07-24T18:29:51;98570.22;;;28.69;47.39
41515;BME280;27247;48.020;16.720;2023-07-24T18:34:01;98556.97;;;28.53;48.53
41515;BME280;27247;48.020;16.720;2023-07-24T18:38:13;98557.97;;;28.23;49.69
41515;BME280;27247;48.020;16.720;2023-07-24T18:42:24;98559.84;;;28.05;50.80
41515;BME280;27247;48.020;16.720;2023-07-24T18:46:34;98563.03;;;27.81;51.82
41515;BME280;27247;48.020;16.720;2023-07-24T18:50:48;98575.28;;;27.66;52.76
41515;BME280;27247;48.020;16.720;2023-07-24T18:55:05;98594.25;;;27.54;53.58
41515;BME280;27247;48.020;16.720;2023-07-24T18:59:18;98605.63;;;27.30;54.02
41515;BME280;27247;48.020;16.720;2023-07-24T19:03:28;98606.28;;;27.05;55.23
41515;BME280;27247;48.020;16.720;2023-07-24T19:07:43;98621.00;;;26.95;55.35
41515;BME280;27247;48.020;16.720;2023-07-24T19:11:54;98620.69;;;26.75;55.04
41515;BME280;27247;48.020;16.720;2023-07-24T19:16:05;98658.00;;;26.62;54.80
41515;BME280;27247;48.020;16.720;2023-07-24T19:20:18;98680.50;;;26.36;57.27
41515;BME280;27247;48.020;16.720;2023-07-24T19:24:29;98698.78;;;26.14;60.13
41515;BME280;27247;48.020;16.720;2023-07-24T19:28:39;98690.22;;;25.88;62.16
41515;BME280;27247;48.020;16.720;2023-07-24T19:32:51;98691.28;;;25.59;63.77
41515;BME280;27247;48.020;16.720;2023-07-24T19:37:02;98676.91;;;25.54;64.39
41515;BME280;27247;48.020;16.720;2023-07-24T19:41:12;98678.81;;;25.39;65.21
41515;BME280;27247;48.020;16.720;2023-07-24T19:45:23;98681.00;;;25.24;65.74
41515;BME280;27247;48.020;16.720;2023-07-24T19:49:40;98677.41;;;25.09;66.53
41515;BME280;27247;48.020;16.720;2023-07-24T19:53:50;98672.94;;;25.00;67.22
41515;BME280;27247;48.020;16.720;2023-07-24T19:58:01;98697.53;;;24.95;67.52
41515;BME280;27247;48.020;16.720;2023-07-24T20:02:12;98731.25;;;24.71;68.82
41515;BME280;27247;48.020;16.720;2023-07-24T20:06:25;98753.19;;;24.66;68.95
41515;BME280;27247;48.020;16.720;2023-07-24T20:10:35;98758.94;;;24.65;69.12
41515;BME280;27247;48.020;16.720;2023-07-24T20:14:46;98756.72;;;24.67;69.17
41515;BME280;27247;48.020;16.720;2023-07-24T20:18:58;98760.59;;;24.42;70.38
41515;BME280;27247;48.020;16.720;2023-07-24T20:23:08;98761.00;;;24.06;71.26
41515;BME280;27247;48.020;16.720;2023-07-24T20:27:19;98749.63;;;23.99;72.31
41515;BME280;27247;48.020;16.720;2023-07-24T20:31:30;98731.41;;;23.89;72.68
41515;BME280;27247;48.020;16.720;2023-07-24T20:35:41;98713.94;;;23.91;72.94
41515;BME280;27247;48.020;16.720;2023-07-24T20:39:54;98708.53;;;23.85;72.64
41515;BME280;27247;48.020;16.720;2023-07-24T20:44:05;98708.81;;;23.84;73.33
41515;BME280;27247;48.020;16.720;2023-07-24T20:48:16;98714.91;;;23.76;73.85
41515;BME280;27247;48.020;16.720;2023-07-24T20:52:29;98722.91;;;23.67;73.72
41515;BME280;27247;48.020;16.720;2023-07-24T20:56:39;98741.59;;;23.50;74.93
41515;BME280;27247;48.020;16.720;2023-07-24T21:00:50;98750.94;;;23.44;75.03
41515;BME280;27247;48.020;16.720;2023-07-24T21:05:00;98773.88;;;23.04;76.21
41515;BME280;27247;48.020;16.720;2023-07-24T21:09:10;98789.44;;;22.98;76.92
41515;BME280;27247;48.020;16.720;2023-07-24T21:13:21;98787.31;;;22.90;77.81
41515;BME280;27247;48.020;16.720;2023-07-24T21:17:31;98785.34;;;23.01;77.89
41515;BME280;27247;48.020;16.720;2023-07-24T21:21:44;98787.50;;;23.04;77.55
41515;BME280;27247;48.020;16.720;2023-07-24T21:25:55;98778.47;;;23.08;77.65
41515;BME280;27247;48.020;16.720;2023-07-24T21:30:06;98765.66;;;23.09;76.89
41515;BME280;27247;48.020;16.720;2023-07-24T21:34:19;98764.00;;;23.13;76.65
41515;BME280;27247;48.020;16.720;2023-07-24T21:38:30;98741.13;;;23.09;76.48
41515;BME280;27247;48.020;16.720;2023-07-24T21:42:41;98743.78;;;23.19;76.44
41515;BME280;27247;48.020;16.720;2023-07-24T21:46:51;98747.31;;;23.19;77.15